sensor_id;sensor_type;location;lat;lon;timestamp;temperature;humidity
72202;SHT30;60105;54.956;73.412;2023-05-13T00:02:23;6.23;43.37
72202;SHT30;60105;54.956;73.412;2023-05-13T00:05:25;6.22;43.17
72202;SHT30;60105;54.956;73.412;2023-05-13T00:08:26;6.29;44.41
72202;SHT30;60105;54.956;73.412;2023-05-13T00:11:27;6.37;43.77
72202;SHT30;60105;54.956;73.412;2023-05-13T00:14:29;6.43;43.87
72202;SHT30;60105;54.956;73.412;2023-05-13T00:17:30;6.36;42.78
72202;SHT30;60105;54.956;73.412;2023-05-13T00:20:31;6.47;43.45
72202;SHT30;60105;54.956;73.412;2023-05-13T00:23:32;6.51;42.68
72202;SHT30;60105;54.956;73.412;2023-05-13T00:26:34;6.57;42.58
72202;SHT30;60105;54.956;73.412;2023-05-13T00:29:35;6.50;43.06
72202;SHT30;60105;54.956;73.412;2023-05-13T00:33:19;6.44;42.52
72202;SHT30;60105;54.956;73.412;2023-05-13T00:36:20;6.47;42.66
72202;SHT30;60105;54.956;73.412;2023-05-13T00:39:21;6.51;42.65
72202;SHT30;60105;54.956;73.412;2023-05-13T00:42:24;6.60;43.15
72202;SHT30;60105;54.956;73.412;2023-05-13T00:45:25;6.60;43.23
72202;SHT30;60105;54.956;73.412;2023-05-13T00:48:27;6.60;42.65
72202;SHT30;60105;54.956;73.412;2023-05-13T00:51:29;6.57;42.43
72202;SHT30;60105;54.956;73.412;2023-05-13T00:54:31;6.54;42.10
72202;SHT30;60105;54.956;73.412;2023-05-13T00:57:34;6.46;41.90
72202;SHT30;60105;54.956;73.412;2023-05-13T01:04:30;6.54;43.26
72202;SHT30;60105;54.956;73.412;2023-05-13T01:11:30;6.80;41.65
72202;SHT30;60105;54.956;73.412;2023-05-13T01:14:36;6.99;41.71
72202;SHT30;60105;54.956;73.412;2023-05-13T01:18:24;7.22;40.66
72202;SHT30;60105;54.956;73.412;2023-05-13T01:21:34;7.26;42.13
72202;SHT30;60105;54.956;73.412;2023-05-13T01:24:36;7.43;40.16
72202;SHT30;60105;54.956;73.412;2023-05-13T01:28:19;7.45;40.24
72202;SHT30;60105;54.956;73.412;2023-05-13T01:31:25;7.53;40.92
72202;SHT30;60105;54.956;73.412;2023-05-13T01:34:26;7.65;39.80
72202;SHT30;60105;54.956;73.412;2023-05-13T01:37:29;7.78;40.74
72202;SHT30;60105;54.956;73.412;2023-05-13T01:40:31;7.90;39.88
72202;SHT30;60105;54.956;73.412;2023-05-13T01:43:39;7.84;40.19
72202;SHT30;60105;54.956;73.412;2023-05-13T01:46:45;7.94;40.34
72202;SHT30;60105;54.956;73.412;2023-05-13T01:49:47;7.99;39.84
72202;SHT30;60105;54.956;73.412;2023-05-13T01:53:19;8.14;40.57
72202;SHT30;60105;54.956;73.412;2023-05-13T01:56:21;8.25;39.47
72202;SHT30;60105;54.956;73.412;2023-05-13T01:59:24;8.29;38.71
72202;SHT30;60105;54.956;73.412;2023-05-13T02:02:26;8.35;39.30
72202;SHT30;60105;54.956;73.412;2023-05-13T02:05:29;8.35;38.52
72202;SHT30;60105;54.956;73.412;2023-05-13T02:08:38;8.46;37.72
72202;SHT30;60105;54.956;73.412;2023-05-13T02:11:39;8.57;38.20
72202;SHT30;60105;54.956;73.412;2023-05-13T02:14:41;8.72;38.79
72202;SHT30;60105;54.956;73.412;2023-05-13T02:18:19;8.87;37.80
72202;SHT30;60105;54.956;73.412;2023-05-13T02:21:40;8.87;38.17
72202;SHT30;60105;54.956;73.412;2023-05-13T02:24:43;9.04;37.30
72202;SHT30;60105;54.956;73.412;2023-05-13T02:28:19;9.10;37.43
72202;SHT30;60105;54.956;73.412;2023-05-13T02:31:20;9.08;37.36
72202;SHT30;60105;54.956;73.412;2023-05-13T02:34:21;9.23;37.14
72202;SHT30;60105;54.956;73.412;2023-05-13T02:37:22;9.24;38.23
72202;SHT30;60105;54.956;73.412;2023-05-13T02:40:33;9.21;36.33
72202;SHT30;60105;54.956;73.412;2023-05-13T02:43:36;9.13;36.75
72202;SHT30;60105;54.956;73.412;2023-05-13T02:46:40;9.41;36.59
72202;SHT30;60105;54.956;73.412;2023-05-13T02:49:41;9.51;36.87
72202;SHT30;60105;54.956;73.412;2023-05-13T02:53:19;9.51;35.52
72202;SHT30;60105;54.956;73.412;2023-05-13T02:56:26;9.65;36.31
72202;SHT30;60105;54.956;73.412;2023-05-13T02:59:27;9.78;35.88
72202;SHT30;60105;54.956;73.412;2023-05-13T03:02:31;9.86;35.78
72202;SHT30;60105;54.956;73.412;2023-05-13T03:05:32;10.02;35.02
72202;SHT30;60105;54.956;73.412;2023-05-13T03:08:34;10.02;35.56
72202;SHT30;60105;54.956;73.412;2023-05-13T03:11:35;10.07;35.74
72202;SHT30;60105;54.956;73.412;2023-05-13T03:14:36;10.09;35.17
72202;SHT30;60105;54.956;73.412;2023-05-13T03:18:18;9.90;35.46
72202;SHT30;60105;54.956;73.412;2023-05-13T03:21:20;9.92;35.41
72202;SHT30;60105;54.956;73.412;2023-05-13T03:24:22;9.90;36.36
72202;SHT30;60105;54.956;73.412;2023-05-13T03:27:23;10.07;35.60
72202;SHT30;60105;54.956;73.412;2023-05-13T03:30:25;10.06;35.30
72202;SHT30;60105;54.956;73.412;2023-05-13T03:33:38;10.10;34.96
72202;SHT30;60105;54.956;73.412;2023-05-13T03:36:39;10.20;34.52
72202;SHT30;60105;54.956;73.412;2023-05-13T03:39:41;10.17;34.54
72202;SHT30;60105;54.956;73.412;2023-05-13T03:43:19;10.16;34.45
72202;SHT30;60105;54.956;73.412;2023-05-13T03:46:27;10.12;34.43
72202;SHT30;60105;54.956;73.412;2023-05-13T03:49:29;10.30;33.95
72202;SHT30;60105;54.956;73.412;2023-05-13T03:52:31;10.43;34.69
72202;SHT30;60105;54.956;73.412;2023-05-13T03:55:33;10.60;33.88
72202;SHT30;60105;54.956;73.412;2023-05-13T03:58:35;10.71;34.11
72202;SHT30;60105;54.956;73.412;2023-05-13T04:01:38;10.81;32.86
72202;SHT30;60105;54.956;73.412;2023-05-13T04:04:40;10.86;33.07
72202;SHT30;60105;54.956;73.412;2023-05-13T04:07:47;10.95;33.02
72202;SHT30;60105;54.956;73.412;2023-05-13T04:10:48;11.05;34.63
72202;SHT30;60105;54.956;73.412;2023-05-13T04:13:50;11.12;32.32
72202;SHT30;60105;54.956;73.412;2023-05-13T04:16:51;11.19;32.49
72202;SHT30;60105;54.956;73.412;2023-05-13T04:19:53;11.24;33.19
72202;SHT30;60105;54.956;73.412;2023-05-13T04:23:18;11.44;33.07
72202;SHT30;60105;54.956;73.412;2023-05-13T04:26:20;11.56;33.07
72202;SHT30;60105;54.956;73.412;2023-05-13T04:29:22;11.46;31.55
72202;SHT30;60105;54.956;73.412;2023-05-13T04:32:24;11.54;31.55
72202;SHT30;60105;54.956;73.412;2023-05-13T04:35:28;11.75;31.53
72202;SHT30;60105;54.956;73.412;2023-05-13T04:38:33;11.88;31.57
72202;SHT30;60105;54.956;73.412;2023-05-13T04:41:35;12.01;31.30
72202;SHT30;60105;54.956;73.412;2023-05-13T04:44:37;12.15;30.62
72202;SHT30;60105;54.956;73.412;2023-05-13T04:48:18;12.11;29.98
72202;SHT30;60105;54.956;73.412;2023-05-13T04:51:20;12.05;30.56
72202;SHT30;60105;54.956;73.412;2023-05-13T04:54:22;12.17;30.29
72202;SHT30;60105;54.956;73.412;2023-05-13T04:57:23;12.36;31.95
72202;SHT30;60105;54.956;73.412;2023-05-13T05:00:25;12.46;30.46
72202;SHT30;60105;54.956;73.412;2023-05-13T05:03:26;12.59;31.07
72202;SHT30;60105;54.956;73.412;2023-05-13T05:06:28;12.70;30.68
72202;SHT30;60105;54.956;73.412;2023-05-13T05:09:31;12.83;31.21
72202;SHT30;60105;54.956;73.412;2023-05-13T05:12:33;12.90;31.22
72202;SHT30;60105;54.956;73.412;2023-05-13T05:15:35;13.01;30.35
72202;SHT30;60105;54.956;73.412;2023-05-13T05:18:39;13.27;29.60
72202;SHT30;60105;54.956;73.412;2023-05-13T05:21:44;13.38;30.22
72202;SHT30;60105;54.956;73.412;2023-05-13T05:24:47;13.49;30.33
72202;SHT30;60105;54.956;73.412;2023-05-13T05:28:18;13.76;29.21
72202;SHT30;60105;54.956;73.412;2023-05-13T05:31:20;13.87;28.73
72202;SHT30;60105;54.956;73.412;2023-05-13T05:34:22;13.82;28.48
72202;SHT30;60105;54.956;73.412;2023-05-13T05:37:23;13.83;30.11
72202;SHT30;60105;54.956;73.412;2023-05-13T05:40:25;13.90;30.38
72202;SHT30;60105;54.956;73.412;2023-05-13T05:43:28;14.06;29.37
72202;SHT30;60105;54.956;73.412;2023-05-13T05:46:29;14.20;28.66
72202;SHT30;60105;54.956;73.412;2023-05-13T05:49:32;14.10;28.60
72202;SHT30;60105;54.956;73.412;2023-05-13T05:52:34;14.07;29.51
72202;SHT30;60105;54.956;73.412;2023-05-13T05:55:36;14.23;30.35
72202;SHT30;60105;54.956;73.412;2023-05-13T05:58:38;14.27;29.03
72202;SHT30;60105;54.956;73.412;2023-05-13T06:01:39;14.38;28.04
72202;SHT30;60105;54.956;73.412;2023-05-13T06:04:41;14.33;28.69
72202;SHT30;60105;54.956;73.412;2023-05-13T06:07:47;14.45;29.86
72202;SHT30;60105;54.956;73.412;2023-05-13T06:10:48;14.45;28.13
72202;SHT30;60105;54.956;73.412;2023-05-13T06:13:50;14.41;28.79
72202;SHT30;60105;54.956;73.412;2023-05-13T06:16:51;14.49;29.88
72202;SHT30;60105;54.956;73.412;2023-05-13T06:19:53;14.28;28.52
72202;SHT30;60105;54.956;73.412;2023-05-13T06:23:18;14.12;27.82
72202;SHT30;60105;54.956;73.412;2023-05-13T06:26:19;14.21;29.48
72202;SHT30;60105;54.956;73.412;2023-05-13T06:29:21;14.25;27.30
72202;SHT30;60105;54.956;73.412;2023-05-13T06:32:22;14.18;27.46
72202;SHT30;60105;54.956;73.412;2023-05-13T06:35:24;14.13;26.92
72202;SHT30;60105;54.956;73.412;2023-05-13T06:38:26;14.09;28.34
72202;SHT30;60105;54.956;73.412;2023-05-13T06:41:31;13.99;26.78
72202;SHT30;60105;54.956;73.412;2023-05-13T06:44:40;13.97;28.30
72202;SHT30;60105;54.956;73.412;2023-05-13T06:48:18;13.80;27.37
72202;SHT30;60105;54.956;73.412;2023-05-13T06:51:20;13.85;27.21
72202;SHT30;60105;54.956;73.412;2023-05-13T06:54:21;13.96;28.25
72202;SHT30;60105;54.956;73.412;2023-05-13T06:57:23;14.03;29.06
72202;SHT30;60105;54.956;73.412;2023-05-13T07:00:24;13.99;28.48
72202;SHT30;60105;54.956;73.412;2023-05-13T07:03:25;14.16;28.36
72202;SHT30;60105;54.956;73.412;2023-05-13T07:06:26;14.23;27.36
72202;SHT30;60105;54.956;73.412;2023-05-13T07:09:28;14.34;26.65
72202;SHT30;60105;54.956;73.412;2023-05-13T07:12:29;14.34;28.30
72202;SHT30;60105;54.956;73.412;2023-05-13T07:15:31;14.42;26.37
72202;SHT30;60105;54.956;73.412;2023-05-13T07:18:32;14.55;27.40
72202;SHT30;60105;54.956;73.412;2023-05-13T07:21:34;14.58;26.55
72202;SHT30;60105;54.956;73.412;2023-05-13T07:24:35;14.81;26.84
72202;SHT30;60105;54.956;73.412;2023-05-13T07:28:18;14.72;26.38
72202;SHT30;60105;54.956;73.412;2023-05-13T07:31:23;14.60;26.18
72202;SHT30;60105;54.956;73.412;2023-05-13T07:34:24;14.67;26.78
72202;SHT30;60105;54.956;73.412;2023-05-13T07:37:25;14.79;27.96
72202;SHT30;60105;54.956;73.412;2023-05-13T07:40:28;14.92;26.44
72202;SHT30;60105;54.956;73.412;2023-05-13T07:43:29;14.96;25.01
72202;SHT30;60105;54.956;73.412;2023-05-13T07:46:31;14.76;25.46
72202;SHT30;60105;54.956;73.412;2023-05-13T07:49:33;14.69;25.96
72202;SHT30;60105;54.956;73.412;2023-05-13T07:53:18;14.72;25.79
72202;SHT30;60105;54.956;73.412;2023-05-13T07:56:20;14.86;25.31
72202;SHT30;60105;54.956;73.412;2023-05-13T07:59:21;14.98;25.53
72202;SHT30;60105;54.956;73.412;2023-05-13T08:02:23;15.07;26.55
72202;SHT30;60105;54.956;73.412;2023-05-13T08:05:24;15.09;26.74
72202;SHT30;60105;54.956;73.412;2023-05-13T08:08:25;15.12;25.49
72202;SHT30;60105;54.956;73.412;2023-05-13T08:11:27;14.99;24.47
72202;SHT30;60105;54.956;73.412;2023-05-13T08:14:29;14.71;25.74
72202;SHT30;60105;54.956;73.412;2023-05-13T08:17:30;14.51;26.46
72202;SHT30;60105;54.956;73.412;2023-05-13T08:20:31;14.54;26.26
72202;SHT30;60105;54.956;73.412;2023-05-13T08:23:35;14.52;25.96
72202;SHT30;60105;54.956;73.412;2023-05-13T08:26:36;14.61;27.06
72202;SHT30;60105;54.956;73.412;2023-05-13T08:29:37;14.67;26.43
72202;SHT30;60105;54.956;73.412;2023-05-13T08:33:18;14.95;26.10
72202;SHT30;60105;54.956;73.412;2023-05-13T08:36:20;15.07;25.89
72202;SHT30;60105;54.956;73.412;2023-05-13T08:39:26;15.14;26.69
72202;SHT30;60105;54.956;73.412;2023-05-13T08:42:34;15.13;24.89
72202;SHT30;60105;54.956;73.412;2023-05-13T08:45:38;15.10;24.69
72202;SHT30;60105;54.956;73.412;2023-05-13T08:48:41;15.12;25.71
72202;SHT30;60105;54.956;73.412;2023-05-13T08:52:00;14.96;25.07
72202;SHT30;60105;54.956;73.412;2023-05-13T08:55:03;15.00;25.29
72202;SHT30;60105;54.956;73.412;2023-05-13T08:58:18;15.00;24.75
72202;SHT30;60105;54.956;73.412;2023-05-13T09:01:21;14.85;26.77
72202;SHT30;60105;54.956;73.412;2023-05-13T09:04:22;14.85;25.04
72202;SHT30;60105;54.956;73.412;2023-05-13T09:07:25;14.89;25.74
72202;SHT30;60105;54.956;73.412;2023-05-13T09:10:30;14.72;25.62
72202;SHT30;60105;54.956;73.412;2023-05-13T09:13:31;14.71;25.93
72202;SHT30;60105;54.956;73.412;2023-05-13T09:16:32;14.79;25.37
72202;SHT30;60105;54.956;73.412;2023-05-13T09:19:36;14.88;26.49
72202;SHT30;60105;54.956;73.412;2023-05-13T09:23:18;14.76;25.77
72202;SHT30;60105;54.956;73.412;2023-05-13T09:26:27;14.78;24.80
72202;SHT30;60105;54.956;73.412;2023-05-13T09:29:29;14.68;24.39
72202;SHT30;60105;54.956;73.412;2023-05-13T09:32:30;14.58;25.90
72202;SHT30;60105;54.956;73.412;2023-05-13T09:35:32;14.62;25.08
72202;SHT30;60105;54.956;73.412;2023-05-13T09:38:34;14.61;24.57
72202;SHT30;60105;54.956;73.412;2023-05-13T09:41:39;14.44;25.50
72202;SHT30;60105;54.956;73.412;2023-05-13T09:44:44;14.24;24.40
72202;SHT30;60105;54.956;73.412;2023-05-13T09:48:20;14.03;24.54
72202;SHT30;60105;54.956;73.412;2023-05-13T09:51:26;13.82;23.57
72202;SHT30;60105;54.956;73.412;2023-05-13T09:54:33;13.65;24.86
72202;SHT30;60105;54.956;73.412;2023-05-13T09:58:19;13.59;24.38
72202;SHT30;60105;54.956;73.412;2023-05-13T10:01:21;13.49;24.45
72202;SHT30;60105;54.956;73.412;2023-05-13T10:04:22;13.51;24.49
72202;SHT30;60105;54.956;73.412;2023-05-13T10:07:24;13.44;24.37
72202;SHT30;60105;54.956;73.412;2023-05-13T10:10:30;13.24;24.41
72202;SHT30;60105;54.956;73.412;2023-05-13T10:13:32;13.21;24.34
72202;SHT30;60105;54.956;73.412;2023-05-13T10:16:34;13.24;24.36
72202;SHT30;60105;54.956;73.412;2023-05-13T10:19:36;13.27;23.86
72202;SHT30;60105;54.956;73.412;2023-05-13T10:23:19;13.14;24.54
72202;SHT30;60105;54.956;73.412;2023-05-13T10:26:22;13.08;24.21
72202;SHT30;60105;54.956;73.412;2023-05-13T10:29:25;12.96;25.54
72202;SHT30;60105;54.956;73.412;2023-05-13T10:32:28;13.00;25.66
72202;SHT30;60105;54.956;73.412;2023-05-13T10:35:33;12.96;24.85
72202;SHT30;60105;54.956;73.412;2023-05-13T10:38:41;12.88;24.78
72202;SHT30;60105;54.956;73.412;2023-05-13T10:45:06;12.75;23.96
72202;SHT30;60105;54.956;73.412;2023-05-13T10:48:18;12.63;25.54
72202;SHT30;60105;54.956;73.412;2023-05-13T10:51:23;12.66;24.13
72202;SHT30;60105;54.956;73.412;2023-05-13T10:54:24;12.56;24.16
72202;SHT30;60105;54.956;73.412;2023-05-13T10:57:27;12.56;24.89
72202;SHT30;60105;54.956;73.412;2023-05-13T11:00:30;12.52;25.81
72202;SHT30;60105;54.956;73.412;2023-05-13T11:03:31;12.52;25.58
72202;SHT30;60105;54.956;73.412;2023-05-13T11:06:34;12.50;25.03
72202;SHT30;60105;54.956;73.412;2023-05-13T11:09:37;12.49;25.43
72202;SHT30;60105;54.956;73.412;2023-05-13T11:13:20;12.40;25.12
72202;SHT30;60105;54.956;73.412;2023-05-13T11:16:25;12.42;25.09
72202;SHT30;60105;54.956;73.412;2023-05-13T11:19:29;12.38;25.18
72202;SHT30;60105;54.956;73.412;2023-05-13T11:22:31;12.25;25.29
72202;SHT30;60105;54.956;73.412;2023-05-13T11:25:33;12.24;25.52
72202;SHT30;60105;54.956;73.412;2023-05-13T11:29:04;12.18;25.16
72202;SHT30;60105;54.956;73.412;2023-05-13T11:32:06;12.17;24.66
72202;SHT30;60105;54.956;73.412;2023-05-13T11:35:07;12.12;24.68
72202;SHT30;60105;54.956;73.412;2023-05-13T11:38:21;12.11;24.56
72202;SHT30;60105;54.956;73.412;2023-05-13T11:41:24;12.05;24.98
72202;SHT30;60105;54.956;73.412;2023-05-13T11:44:26;12.02;24.68
72202;SHT30;60105;54.956;73.412;2023-05-13T11:47:28;12.05;24.75
72202;SHT30;60105;54.956;73.412;2023-05-13T11:50:29;12.06;24.85
72202;SHT30;60105;54.956;73.412;2023-05-13T11:53:32;12.18;25.70
72202;SHT30;60105;54.956;73.412;2023-05-13T11:56:33;12.18;25.90
72202;SHT30;60105;54.956;73.412;2023-05-13T11:59:34;12.08;24.73
72202;SHT30;60105;54.956;73.412;2023-05-13T12:03:18;12.05;25.16
72202;SHT30;60105;54.956;73.412;2023-05-13T12:06:20;11.99;24.92
72202;SHT30;60105;54.956;73.412;2023-05-13T12:09:22;11.90;24.08
72202;SHT30;60105;54.956;73.412;2023-05-13T12:12:24;11.88;24.93
72202;SHT30;60105;54.956;73.412;2023-05-13T12:15:25;11.88;24.87
72202;SHT30;60105;54.956;73.412;2023-05-13T12:18:27;11.85;25.02
72202;SHT30;60105;54.956;73.412;2023-05-13T12:21:31;11.82;24.47
72202;SHT30;60105;54.956;73.412;2023-05-13T12:24:33;11.81;25.04
72202;SHT30;60105;54.956;73.412;2023-05-13T12:28:23;11.78;24.50
72202;SHT30;60105;54.956;73.412;2023-05-13T12:31:25;11.67;24.68
72202;SHT30;60105;54.956;73.412;2023-05-13T12:34:30;11.68;24.39
72202;SHT30;60105;54.956;73.412;2023-05-13T12:37:32;11.67;24.86
72202;SHT30;60105;54.956;73.412;2023-05-13T12:40:33;11.59;24.84
72202;SHT30;60105;54.956;73.412;2023-05-13T12:43:36;11.49;28.24
72202;SHT30;60105;54.956;73.412;2023-05-13T12:46:38;11.46;30.80
72202;SHT30;60105;54.956;73.412;2023-05-13T12:49:58;11.37;32.80
72202;SHT30;60105;54.956;73.412;2023-05-13T12:53:18;11.33;35.28
72202;SHT30;60105;54.956;73.412;2023-05-13T12:56:20;10.99;39.91
72202;SHT30;60105;54.956;73.412;2023-05-13T12:59:22;10.79;40.64
72202;SHT30;60105;54.956;73.412;2023-05-13T13:02:24;10.62;38.07
72202;SHT30;60105;54.956;73.412;2023-05-13T13:05:26;10.48;39.04
72202;SHT30;60105;54.956;73.412;2023-05-13T13:08:27;10.48;39.75
72202;SHT30;60105;54.956;73.412;2023-05-13T13:11:28;10.27;46.20
72202;SHT30;60105;54.956;73.412;2023-05-13T13:14:30;10.24;41.60
72202;SHT30;60105;54.956;73.412;2023-05-13T13:17:32;10.23;43.97
72202;SHT30;60105;54.956;73.412;2023-05-13T13:20:33;10.04;44.48
72202;SHT30;60105;54.956;73.412;2023-05-13T13:23:34;9.97;45.23
72202;SHT30;60105;54.956;73.412;2023-05-13T13:26:36;9.92;45.35
72202;SHT30;60105;54.956;73.412;2023-05-13T13:29:37;9.96;44.65
72202;SHT30;60105;54.956;73.412;2023-05-13T13:33:18;9.86;44.21
72202;SHT30;60105;54.956;73.412;2023-05-13T13:36:21;9.75;42.90
72202;SHT30;60105;54.956;73.412;2023-05-13T13:39:22;9.85;42.66
72202;SHT30;60105;54.956;73.412;2023-05-13T13:42:23;9.86;44.12
72202;SHT30;60105;54.956;73.412;2023-05-13T13:45:25;9.94;42.35
72202;SHT30;60105;54.956;73.412;2023-05-13T13:48:27;10.00;42.04
72202;SHT30;60105;54.956;73.412;2023-05-13T13:51:28;9.97;42.28
72202;SHT30;60105;54.956;73.412;2023-05-13T13:54:29;10.04;43.21
72202;SHT30;60105;54.956;73.412;2023-05-13T13:57:31;10.12;41.09
72202;SHT30;60105;54.956;73.412;2023-05-13T14:00:32;10.04;40.82
72202;SHT30;60105;54.956;73.412;2023-05-13T14:03:33;10.09;41.19
72202;SHT30;60105;54.956;73.412;2023-05-13T14:06:36;10.02;40.65
72202;SHT30;60105;54.956;73.412;2023-05-13T14:09:37;10.06;42.15
72202;SHT30;60105;54.956;73.412;2023-05-13T14:13:18;10.04;39.72
72202;SHT30;60105;54.956;73.412;2023-05-13T14:16:20;10.14;37.38
72202;SHT30;60105;54.956;73.412;2023-05-13T14:19:21;10.10;39.42
72202;SHT30;60105;54.956;73.412;2023-05-13T14:22:24;10.09;37.28
72202;SHT30;60105;54.956;73.412;2023-05-13T14:25:25;10.12;37.75
72202;SHT30;60105;54.956;73.412;2023-05-13T14:28:27;10.09;37.24
72202;SHT30;60105;54.956;73.412;2023-05-13T14:31:28;10.10;36.15
72202;SHT30;60105;54.956;73.412;2023-05-13T14:34:31;10.16;34.76
72202;SHT30;60105;54.956;73.412;2023-05-13T14:37:32;10.02;34.47
72202;SHT30;60105;54.956;73.412;2023-05-13T14:40:37;10.06;34.56
72202;SHT30;60105;54.956;73.412;2023-05-13T14:43:39;10.13;34.56
72202;SHT30;60105;54.956;73.412;2023-05-13T14:46:40;10.14;32.83
72202;SHT30;60105;54.956;73.412;2023-05-13T14:49:41;10.25;32.59
72202;SHT30;60105;54.956;73.412;2023-05-13T14:53:18;10.34;33.28
72202;SHT30;60105;54.956;73.412;2023-05-13T14:56:19;10.36;32.15
72202;SHT30;60105;54.956;73.412;2023-05-13T14:59:21;10.31;33.20
72202;SHT30;60105;54.956;73.412;2023-05-13T15:02:22;10.34;33.33
72202;SHT30;60105;54.956;73.412;2023-05-13T15:05:24;10.30;34.09
72202;SHT30;60105;54.956;73.412;2023-05-13T15:08:26;10.24;34.95
72202;SHT30;60105;54.956;73.412;2023-05-13T15:11:28;10.12;36.05
72202;SHT30;60105;54.956;73.412;2023-05-13T15:14:29;10.10;37.09
72202;SHT30;60105;54.956;73.412;2023-05-13T15:17:30;9.94;39.67
72202;SHT30;60105;54.956;73.412;2023-05-13T15:20:32;9.86;37.09
72202;SHT30;60105;54.956;73.412;2023-05-13T15:23:33;9.90;38.78
72202;SHT30;60105;54.956;73.412;2023-05-13T15:26:35;9.87;39.14
72202;SHT30;60105;54.956;73.412;2023-05-13T15:29:36;9.89;39.00
72202;SHT30;60105;54.956;73.412;2023-05-13T15:33:18;9.87;38.38
72202;SHT30;60105;54.956;73.412;2023-05-13T15:36:19;9.89;39.13
72202;SHT30;60105;54.956;73.412;2023-05-13T15:39:21;9.83;41.37
72202;SHT30;60105;54.956;73.412;2023-05-13T15:42:23;9.83;42.13
72202;SHT30;60105;54.956;73.412;2023-05-13T15:45:25;9.73;41.04
72202;SHT30;60105;54.956;73.412;2023-05-13T15:48:27;9.62;41.69
72202;SHT30;60105;54.956;73.412;2023-05-13T15:51:28;9.68;43.22
72202;SHT30;60105;54.956;73.412;2023-05-13T15:54:32;9.62;44.05
72202;SHT30;60105;54.956;73.412;2023-05-13T15:58:17;9.48;44.39
72202;SHT30;60105;54.956;73.412;2023-05-13T16:01:18;9.42;45.25
72202;SHT30;60105;54.956;73.412;2023-05-13T16:04:20;9.34;44.46
72202;SHT30;60105;54.956;73.412;2023-05-13T16:07:21;9.45;43.97
72202;SHT30;60105;54.956;73.412;2023-05-13T16:10:24;9.54;44.78
72202;SHT30;60105;54.956;73.412;2023-05-13T16:13:25;9.54;44.02
72202;SHT30;60105;54.956;73.412;2023-05-13T16:16:26;9.59;44.77
72202;SHT30;60105;54.956;73.412;2023-05-13T16:19:28;9.56;44.79
72202;SHT30;60105;54.956;73.412;2023-05-13T16:25:33;9.45;45.90
72202;SHT30;60105;54.956;73.412;2023-05-13T16:28:34;9.46;48.16
72202;SHT30;60105;54.956;73.412;2023-05-13T16:31:36;9.49;49.24
72202;SHT30;60105;54.956;73.412;2023-05-13T16:34:37;9.35;48.15
72202;SHT30;60105;54.956;73.412;2023-05-13T16:37:47;9.27;48.62
72202;SHT30;60105;54.956;73.412;2023-05-13T16:40:50;9.10;52.01
72202;SHT30;60105;54.956;73.412;2023-05-13T16:43:51;9.03;52.50
72202;SHT30;60105;54.956;73.412;2023-05-13T16:46:54;8.93;51.80
72202;SHT30;60105;54.956;73.412;2023-05-13T16:49:56;8.87;52.19
72202;SHT30;60105;54.956;73.412;2023-05-13T16:53:18;8.69;54.25
72202;SHT30;60105;54.956;73.412;2023-05-13T16:56:21;8.67;53.55
72202;SHT30;60105;54.956;73.412;2023-05-13T16:59:24;8.62;54.69
72202;SHT30;60105;54.956;73.412;2023-05-13T17:02:25;8.52;56.26
72202;SHT30;60105;54.956;73.412;2023-05-13T17:05:27;8.46;56.36
72202;SHT30;60105;54.956;73.412;2023-05-13T17:08:29;8.45;59.64
72202;SHT30;60105;54.956;73.412;2023-05-13T17:11:31;8.22;60.65
72202;SHT30;60105;54.956;73.412;2023-05-13T17:14:33;7.99;62.55
72202;SHT30;60105;54.956;73.412;2023-05-13T17:18:18;7.76;65.58
72202;SHT30;60105;54.956;73.412;2023-05-13T17:21:19;7.62;66.29
72202;SHT30;60105;54.956;73.412;2023-05-13T17:24:21;7.57;66.92
72202;SHT30;60105;54.956;73.412;2023-05-13T17:27:23;7.47;68.89
72202;SHT30;60105;54.956;73.412;2023-05-13T17:30:24;7.43;68.54
72202;SHT30;60105;54.956;73.412;2023-05-13T17:33:25;7.32;69.88
72202;SHT30;60105;54.956;73.412;2023-05-13T17:36:27;7.35;67.50
72202;SHT30;60105;54.956;73.412;2023-05-13T17:39:29;7.29;68.36
72202;SHT30;60105;54.956;73.412;2023-05-13T17:42:30;7.40;68.47
72202;SHT30;60105;54.956;73.412;2023-05-13T17:45:33;7.45;68.46
72202;SHT30;60105;54.956;73.412;2023-05-13T17:48:35;7.52;69.29
72202;SHT30;60105;54.956;73.412;2023-05-13T17:51:36;7.47;67.72
72202;SHT30;60105;54.956;73.412;2023-05-13T17:54:38;7.56;66.96
72202;SHT30;60105;54.956;73.412;2023-05-13T17:58:17;7.42;67.89
72202;SHT30;60105;54.956;73.412;2023-05-13T18:01:18;7.36;69.53
72202;SHT30;60105;54.956;73.412;2023-05-13T18:04:21;7.29;69.37
72202;SHT30;60105;54.956;73.412;2023-05-13T18:07:23;7.28;69.48
72202;SHT30;60105;54.956;73.412;2023-05-13T18:10:24;7.33;72.23
72202;SHT30;60105;54.956;73.412;2023-05-13T18:13:27;7.29;71.54
72202;SHT30;60105;54.956;73.412;2023-05-13T18:16:29;7.23;71.62
72202;SHT30;60105;54.956;73.412;2023-05-13T18:19:31;7.29;72.42
72202;SHT30;60105;54.956;73.412;2023-05-13T18:22:32;7.19;72.23
72202;SHT30;60105;54.956;73.412;2023-05-13T18:25:34;7.20;72.92
72202;SHT30;60105;54.956;73.412;2023-05-13T18:28:36;7.36;74.14
72202;SHT30;60105;54.956;73.412;2023-05-13T18:31:37;7.16;73.77
72202;SHT30;60105;54.956;73.412;2023-05-13T18:34:38;7.19;73.42
72202;SHT30;60105;54.956;73.412;2023-05-13T18:37:46;7.05;73.40
72202;SHT30;60105;54.956;73.412;2023-05-13T18:40:48;7.05;74.82
72202;SHT30;60105;54.956;73.412;2023-05-13T18:43:49;7.07;75.98
72202;SHT30;60105;54.956;73.412;2023-05-13T18:46:51;6.99;74.96
72202;SHT30;60105;54.956;73.412;2023-05-13T18:49:52;6.99;75.44
72202;SHT30;60105;54.956;73.412;2023-05-13T18:53:18;7.02;76.33
72202;SHT30;60105;54.956;73.412;2023-05-13T18:56:20;6.95;76.02
72202;SHT30;60105;54.956;73.412;2023-05-13T18:59:21;6.80;76.80
72202;SHT30;60105;54.956;73.412;2023-05-13T19:02:23;6.74;77.17
72202;SHT30;60105;54.956;73.412;2023-05-13T19:05:24;6.73;77.20
72202;SHT30;60105;54.956;73.412;2023-05-13T19:08:25;6.76;77.27
72202;SHT30;60105;54.956;73.412;2023-05-13T19:11:27;6.84;78.86
72202;SHT30;60105;54.956;73.412;2023-05-13T19:14:28;6.73;78.03
72202;SHT30;60105;54.956;73.412;2023-05-13T19:17:29;6.66;78.41
72202;SHT30;60105;54.956;73.412;2023-05-13T19:20:31;6.64;78.79
72202;SHT30;60105;54.956;73.412;2023-05-13T19:23:32;6.50;78.16
72202;SHT30;60105;54.956;73.412;2023-05-13T19:26:34;6.53;78.85
72202;SHT30;60105;54.956;73.412;2023-05-13T19:29:35;6.43;79.37
72202;SHT30;60105;54.956;73.412;2023-05-13T19:33:18;6.39;79.67
72202;SHT30;60105;54.956;73.412;2023-05-13T19:36:19;6.39;78.97
72202;SHT30;60105;54.956;73.412;2023-05-13T19:39:23;6.26;78.41